Hundvaag 1 weather for Oct 2008
Month no. 256
Obs.
Da.
Temp. Dew Point Precip. Wind
Speed
Wind gusts Cloud cover Press. Humidity Wind dir. Sunny OPT
01.10.2008 8,6   6,5 0,0   1 982,0 87,0 202,5   60,0 %
02.10.2008 7,1   0,0 1,2   8 985,1 93,0 270,0 1 80,0 %
03.10.2008 10,4   4,0 3,5   4 989,2 87,0 180,0 1 72,5 %
04.10.2008 7,8   7,5 11,5   4 1002,0 66,0 0,0 1 60,0 %
05.10.2008 6,3   17,0 13,0   4 984,1 81,0 270,0 1 50,0 %
06.10.2008 8,3   6,8 5,8   1 1006,1 61,0 315,0 1 57,5 %
07.10.2008 10,1   0,0 6,9   1 1012,9 71,0 180,0 1 65,0 %
08.10.2008 13,9   8,5 13,8   7 1006,1 87,0 157,5 1 72,5 %
09.10.2008 10,1   17,2 1,2   1 1021,0 93,0 270,0   55,0 %
10.10.2008 12,4   2,5 13,8   0 1020,0 93,0 202,5 1 57,5 %
11.10.2008 12,4   27,0 3,5   2 1013,9 93,0 247,5 1 47,5 %
12.10.2008 11,9   1,0 9,2   8 1017,9 76,0 270,0 1 80,0 %
13.10.2008 11,8   0,0 10,4   2 1010,2 87,0 225,0   65,0 %
14.10.2008 9,8   2,0 3,8   7 1010,2 76,0 225,0 1 77,5 %
15.10.2008 9,2   0,0 5,8   1 1009,1 81,0 135,0   62,5 %
16.10.2008 8,8   5,2 3,5   1 996,9 71,0 292,5   62,5 %
17.10.2008 6,1   12,1 3,5   8 999,0 93,0 22,5 1 70,0 %
18.10.2008 9,2   8,0 4,6   2 1007,1 87,0 202,5   60,0 %
19.10.2008 8,2   10,0 3,5   2 1006,1 71,0 292,5   60,0 %
20.10.2008 11,8   14,0 19,6   1 995,9 87,0 180,0   45,0 %
21.10.2008 9,7   9,0 6,9   3 989,8 76,0 270,0 1 60,0 %
22.10.2008 6,4   4,3 10,4   5 1003,0 70,0 292,5 1 65,0 %
23.10.2008 8,0   4,0 16,1   1 1011,8 87,0 180,0   52,5 %
24.10.2008 9,7   42,0 7,4   1 1003,0 71,0 270,0   35,0 %
25.10.2008 9,6   0,4 18,4   1 1014,9 71,0 292,5   52,5 %
26.10.2008 7,9   19,5 26,5   4 1002,0 87,0 0,0 1 40,0 %
27.10.2008 4,9   10,0 10,4   1 991,9 81,0 225,0 1 47,5 %
28.10.2008 2,4   8,5 8,1   1 999,0 86,0 0,0 1 47,5 %
29.10.2008 2,0   3,0 17,3   5 996,9 86,0 180,0 1 55,0 %
30.10.2008 1,1   5,5 2,3   8 1000,0 93,0 22,5 1 72,5 %
31.10.2008 2,4   0,1 3,5   9 1006,1 93,0 45,0 1 77,5 %
Avrg/Sum 8,3   255,6 8,6   3,4 1003,0 82,0 190,9 20 60,2 %